Little Valley, California
Current Conditions -  °F | °C
As of 12:22 AM on Friday 21 Nov 2014 (Local Time) from KAAT Reporting Station
Overcast Overcast  
Wind Chill: 36°   Ceiling: 1200
Heat Index: 36°   Visibility: 7mi
Dew Point: 35°   Wind: 3mph
Humidity: 97%   Direction: 210°SSW
Pressure: 30.02"   Gusts: NA
Location:  40.9954°N, 121.135°W
Report Text: KAAT 210822Z AUTO 21003KT 7SM BKN012 OVC018 02/02 A3002 RMK AO2 T00220017
Loading
Personal Weather Stations






























Interactive Weather Map New forecast layout! Learn more

10-Day Weather Forecast

Advertisements
Track Severe Weather on mobile